createdAt,value
2022-08-26T00:01:44.787Z,12.50
2022-08-26T00:04:12.267Z,11.30
2022-08-26T00:06:42.545Z,11.68
2022-08-26T00:09:13.662Z,10.88
2022-08-26T00:11:43.332Z,11.98
2022-08-26T00:14:09.873Z,11.32
2022-08-26T00:16:36.820Z,11.85
2022-08-26T00:19:07.861Z,11.48
2022-08-26T00:21:35.289Z,11.38
2022-08-26T00:24:04.452Z,12.00
2022-08-26T00:26:33.528Z,11.98
2022-08-26T00:29:00.114Z,12.00
2022-08-26T00:31:27.035Z,11.00
2022-08-26T00:33:53.796Z,12.43
2022-08-26T00:36:20.675Z,11.13
2022-08-26T00:38:48.101Z,11.73
2022-08-26T00:41:14.838Z,11.90
2022-08-26T00:43:46.137Z,11.07
2022-08-26T00:46:19.314Z,10.15
2022-08-26T00:48:51.485Z,12.35
2022-08-26T00:51:21.365Z,11.37
2022-08-26T00:54:01.513Z,12.57
2022-08-26T00:56:42.271Z,11.70
2022-08-26T00:59:12.040Z,12.40
2022-08-26T01:01:41.310Z,12.40
2022-08-26T01:04:09.698Z,12.75
2022-08-26T01:06:36.384Z,11.77
2022-08-26T01:09:04.572Z,11.93
2022-08-26T01:11:34.984Z,12.90
2022-08-26T01:14:04.593Z,12.45
2022-08-26T01:16:33.332Z,12.48
2022-08-26T01:19:07.858Z,12.52
2022-08-26T01:21:43.839Z,13.27
2022-08-26T01:24:11.357Z,12.90
2022-08-26T01:26:42.459Z,12.90
2022-08-26T01:29:12.856Z,12.20
2022-08-26T01:31:43.355Z,11.82
2022-08-26T01:34:38.325Z,12.45
2022-08-26T01:37:13.681Z,12.02
2022-08-26T01:39:43.405Z,13.25
2022-08-26T01:42:14.522Z,13.25
2022-08-26T01:44:49.068Z,12.57
2022-08-26T01:47:17.799Z,11.95
2022-08-26T01:49:55.852Z,13.07
2022-08-26T01:52:28.185Z,13.32
2022-08-26T01:54:57.446Z,11.98
2022-08-26T01:57:25.125Z,11.02
2022-08-26T01:59:54.883Z,13.18
2022-08-26T02:02:22.361Z,12.38
2022-08-26T02:04:56.526Z,12.85
2022-08-26T02:07:24.336Z,12.43
2022-08-26T02:09:53.757Z,12.80
2022-08-26T02:12:21.053Z,12.65
2022-08-26T02:14:53.675Z,11.95
2022-08-26T02:17:24.616Z,13.15
2022-08-26T02:19:51.854Z,12.88
2022-08-26T02:22:22.885Z,13.95
2022-08-26T02:24:54.822Z,12.53
2022-08-26T02:27:32.245Z,12.43
2022-08-26T02:30:12.202Z,13.00
2022-08-26T02:32:40.307Z,12.60
2022-08-26T02:35:10.142Z,14.55
2022-08-26T02:37:37.321Z,13.40
2022-08-26T02:40:08.269Z,14.00
2022-08-26T02:42:35.681Z,12.70
2022-08-26T02:45:02.187Z,13.52
2022-08-26T02:47:29.300Z,12.75
2022-08-26T02:49:59.512Z,13.20
2022-08-26T02:52:26.895Z,14.48
2022-08-26T02:54:54.924Z,13.27
2022-08-26T02:57:22.201Z,14.13
2022-08-26T02:59:49.340Z,14.02
2022-08-26T03:02:17.280Z,13.85
2022-08-26T03:04:57.364Z,13.20
2022-08-26T03:07:28.626Z,14.25
2022-08-26T03:09:57.088Z,14.80
2022-08-26T03:12:24.012Z,14.05
2022-08-26T03:14:52.421Z,14.50
2022-08-26T03:17:19.028Z,14.52
2022-08-26T03:19:45.519Z,15.00
2022-08-26T03:22:12.131Z,15.25
2022-08-26T03:24:41.277Z,14.90
2022-08-26T03:27:12.718Z,14.38
2022-08-26T03:29:59.692Z,15.80
2022-08-26T03:32:27.118Z,14.70
2022-08-26T03:34:53.943Z,14.48
2022-08-26T03:37:21.664Z,14.65
2022-08-26T03:39:48.803Z,15.07
2022-08-26T03:42:15.898Z,15.75
2022-08-26T03:44:42.697Z,15.43
2022-08-26T03:47:10.645Z,14.77
2022-08-26T03:49:37.819Z,16.30
2022-08-26T03:52:04.883Z,15.57
2022-08-26T03:54:32.735Z,13.88
2022-08-26T03:56:59.353Z,16.58
2022-08-26T03:59:26.621Z,15.75
2022-08-26T04:01:55.762Z,15.48
2022-08-26T04:04:22.837Z,15.57
2022-08-26T04:06:58.168Z,16.75
2022-08-26T04:09:26.197Z,16.77
2022-08-26T04:11:55.706Z,14.80
2022-08-26T04:14:25.751Z,15.20
2022-08-26T04:16:55.356Z,16.80
2022-08-26T04:19:23.909Z,17.17
2022-08-26T04:22:01.600Z,14.65
2022-08-26T04:24:31.033Z,14.98
2022-08-26T04:26:57.845Z,16.15
2022-08-26T04:29:26.548Z,15.27
2022-08-26T04:31:57.618Z,15.80
2022-08-26T04:34:28.322Z,15.65
2022-08-26T04:36:56.064Z,16.70
2022-08-26T04:39:22.842Z,15.93
2022-08-26T04:41:50.150Z,15.48
2022-08-26T04:44:17.781Z,15.85
2022-08-26T04:46:44.503Z,16.20
2022-08-26T04:53:24.047Z,15.02
2022-08-26T04:55:52.453Z,15.57
2022-08-26T04:58:24.437Z,15.20
2022-08-26T05:00:54.737Z,15.20
2022-08-26T05:03:23.578Z,15.45
2022-08-26T05:05:56.483Z,14.90
2022-08-26T05:08:24.253Z,14.75
2022-08-26T05:10:57.214Z,15.45
2022-08-26T05:13:26.490Z,15.93
2022-08-26T05:15:53.260Z,15.30
2022-08-26T05:18:23.061Z,15.18
2022-08-26T05:20:54.901Z,13.85
2022-08-26T05:23:23.339Z,14.18
2022-08-26T05:25:57.083Z,13.23
2022-08-26T05:28:28.300Z,13.45
2022-08-26T05:30:55.842Z,13.82
2022-08-26T05:33:23.092Z,14.20
2022-08-26T05:35:50.036Z,13.95
2022-08-26T05:38:20.610Z,13.70
2022-08-26T05:40:52.511Z,15.05
2022-08-26T05:43:21.380Z,14.47
2022-08-26T05:45:50.171Z,13.88
2022-08-26T05:48:19.117Z,13.90
2022-08-26T05:50:52.949Z,13.27
2022-08-26T05:53:21.739Z,13.55
2022-08-26T05:55:50.452Z,13.70
2022-08-26T05:58:20.906Z,14.15
2022-08-26T06:01:12.136Z,13.57
2022-08-26T06:03:44.781Z,13.68
2022-08-26T06:06:27.921Z,13.47
2022-08-26T06:08:59.401Z,13.98
2022-08-26T06:11:28.039Z,12.90
2022-08-26T06:13:58.987Z,13.40
2022-08-26T06:18:55.242Z,12.88
2022-08-26T06:21:28.718Z,13.52
2022-08-26T06:24:16.918Z,12.50
2022-08-26T06:26:50.350Z,12.82
2022-08-26T06:29:24.140Z,11.70
2022-08-26T06:31:52.629Z,12.30
2022-08-26T06:34:19.586Z,12.93
2022-08-26T06:36:47.800Z,12.18
2022-08-26T06:39:16.919Z,12.43
2022-08-26T06:41:47.149Z,11.80
2022-08-26T06:44:17.853Z,11.45
2022-08-26T06:46:45.745Z,10.88
2022-08-26T06:49:13.197Z,11.25
2022-08-26T06:51:40.989Z,11.48
2022-08-26T06:54:08.698Z,11.07
2022-08-26T06:56:42.948Z,11.45
2022-08-26T06:59:11.238Z,11.60
2022-08-26T07:01:44.595Z,11.65
2022-08-26T07:04:15.523Z,10.90
2022-08-26T07:06:48.873Z,9.93
2022-08-26T07:09:16.854Z,10.18
2022-08-26T07:11:44.537Z,11.00
2022-08-26T07:14:12.141Z,10.25
2022-08-26T07:16:39.643Z,10.20
2022-08-26T07:19:10.930Z,11.15
2022-08-26T07:21:40.374Z,10.85
2022-08-26T07:24:08.599Z,11.43
2022-08-26T07:26:38.031Z,10.55
2022-08-26T07:29:04.637Z,10.43
2022-08-26T07:31:39.606Z,11.10
2022-08-26T07:34:10.514Z,10.45
2022-08-26T07:36:37.114Z,10.65
2022-08-26T07:39:04.225Z,10.77
2022-08-26T07:41:30.977Z,11.10
2022-08-26T07:43:58.655Z,11.73
2022-08-26T07:46:27.553Z,14.10
2022-08-26T07:48:57.446Z,12.75
2022-08-26T07:51:27.827Z,11.55
2022-08-26T07:53:54.749Z,11.30
2022-08-26T07:56:23.232Z,10.38
2022-08-26T07:58:53.660Z,10.90
2022-08-26T08:01:24.631Z,11.70
2022-08-26T08:03:54.206Z,10.45
2022-08-26T08:06:23.091Z,10.50
2022-08-26T08:08:54.347Z,11.15
2022-08-26T08:11:21.558Z,11.05
2022-08-26T08:13:56.454Z,10.98
2022-08-26T08:16:27.123Z,11.52
2022-08-26T08:18:55.787Z,12.25
2022-08-26T08:21:24.846Z,11.32
2022-08-26T08:23:53.199Z,12.52
2022-08-26T08:26:20.088Z,11.52
2022-08-26T08:28:47.820Z,11.55
2022-08-26T08:31:44.958Z,11.30
2022-08-26T08:34:08.990Z,10.98
2022-08-26T08:36:36.198Z,11.27
2022-08-26T08:39:03.461Z,10.60
2022-08-26T08:41:43.535Z,10.50
2022-08-26T08:44:19.953Z,10.18
2022-08-26T08:46:54.295Z,9.45
2022-08-26T08:49:22.399Z,8.38
2022-08-26T08:52:03.177Z,9.02
2022-08-26T08:54:32.047Z,8.90
2022-08-26T08:57:12.547Z,8.65
2022-08-26T08:59:53.233Z,8.48
2022-08-26T09:02:33.851Z,9.07
2022-08-26T09:05:28.013Z,9.98
2022-08-26T09:08:03.642Z,8.60
2022-08-26T09:10:54.045Z,8.10
2022-08-26T09:13:25.139Z,8.05
2022-08-26T09:16:10.421Z,8.13
2022-08-26T09:18:48.089Z,8.23
2022-08-26T09:21:17.812Z,9.32
2022-08-26T09:23:49.264Z,8.23
2022-08-26T09:26:25.966Z,8.40
2022-08-26T09:28:55.903Z,7.55
2022-08-26T09:31:27.472Z,7.10
2022-08-26T09:34:19.805Z,12.75
2022-08-26T09:36:50.191Z,9.35
2022-08-26T09:39:37.511Z,6.82
2022-08-26T09:42:14.351Z,6.80
2022-08-26T09:45:04.948Z,7.45
2022-08-26T09:47:39.356Z,7.47
2022-08-26T09:50:30.058Z,7.70
2022-08-26T09:53:16.858Z,6.95
2022-08-26T09:55:49.074Z,7.18
2022-08-26T09:58:32.178Z,6.95
2022-08-26T10:01:02.689Z,6.63
2022-08-26T10:03:38.360Z,6.55
2022-08-26T10:06:21.418Z,6.90
2022-08-26T10:08:59.014Z,6.10
2022-08-26T10:11:53.463Z,5.80
2022-08-26T10:14:32.420Z,5.53
2022-08-26T10:17:06.879Z,5.70
2022-08-26T10:19:57.845Z,6.18
2022-08-26T10:22:29.016Z,5.60
2022-08-26T10:25:00.234Z,5.72
2022-08-26T10:27:51.067Z,6.05
2022-08-26T10:30:23.373Z,6.20
2022-08-26T10:33:02.087Z,5.95
2022-08-26T10:35:30.792Z,5.82
2022-08-26T10:38:14.397Z,6.30
2022-08-26T10:40:43.996Z,5.82
2022-08-26T10:43:25.724Z,6.20
2022-08-26T10:45:57.126Z,6.53
2022-08-26T10:48:53.552Z,6.63
2022-08-26T10:51:27.359Z,7.00
2022-08-26T10:54:02.264Z,7.93
2022-08-26T10:56:40.453Z,6.88
2022-08-26T10:59:25.655Z,6.82
2022-08-26T11:02:24.318Z,7.50
2022-08-26T11:05:03.416Z,7.18
2022-08-26T11:07:33.798Z,7.00
2022-08-26T11:10:05.239Z,7.38
2022-08-26T11:12:34.537Z,7.85
2022-08-26T11:15:24.568Z,7.20
2022-08-26T11:17:53.795Z,7.53
2022-08-26T11:20:31.083Z,7.38
2022-08-26T11:23:20.202Z,7.38
2022-08-26T11:25:57.060Z,7.32
2022-08-26T11:28:45.515Z,7.10
2022-08-26T11:31:26.058Z,7.18
2022-08-26T11:34:01.915Z,6.90
2022-08-26T11:36:40.573Z,6.63
2022-08-26T11:39:15.617Z,7.10
2022-08-26T11:41:48.331Z,7.50
2022-08-26T11:44:25.286Z,7.50
2022-08-26T11:46:59.526Z,6.93
2022-08-26T11:49:28.837Z,7.00
2022-08-26T11:52:18.599Z,7.28
2022-08-26T11:55:07.423Z,6.93
2022-08-26T11:57:40.638Z,6.07
2022-08-26T12:00:13.598Z,5.97
2022-08-26T12:02:41.138Z,6.25
2022-08-26T12:05:08.246Z,6.28
2022-08-26T12:07:35.632Z,6.25
2022-08-26T12:10:05.748Z,6.75
2022-08-26T12:12:36.071Z,6.10
2022-08-26T12:15:21.928Z,5.50
2022-08-26T12:17:53.416Z,5.90
2022-08-26T12:20:48.528Z,5.35
2022-08-26T12:23:36.477Z,5.30
2022-08-26T12:26:20.664Z,5.30
2022-08-26T12:29:00.141Z,5.25
2022-08-26T12:31:34.483Z,5.40
2022-08-26T12:34:05.926Z,5.25
2022-08-26T12:36:40.289Z,5.10
2022-08-26T12:39:15.504Z,5.22
2022-08-26T12:41:44.540Z,5.20
2022-08-26T12:44:36.794Z,5.25
2022-08-26T12:47:39.065Z,5.40
2022-08-26T12:50:12.951Z,4.80
2022-08-26T12:52:59.798Z,4.60
2022-08-26T12:55:32.385Z,4.80
2022-08-26T12:58:16.054Z,5.20
2022-08-26T13:00:45.214Z,5.53
2022-08-26T13:03:50.352Z,4.60
2022-08-26T13:06:22.675Z,4.72
2022-08-26T13:08:53.783Z,4.45
2022-08-26T13:11:33.116Z,5.20
2022-08-26T13:14:24.110Z,5.20
2022-08-26T13:16:52.104Z,5.10
2022-08-26T13:19:24.449Z,5.47
2022-08-26T13:21:53.940Z,5.25
2022-08-26T13:24:24.988Z,5.28
2022-08-26T13:26:51.730Z,5.10
2022-08-26T13:29:19.320Z,5.38
2022-08-26T13:31:46.817Z,5.13
2022-08-26T13:34:19.583Z,5.10
2022-08-26T13:39:16.209Z,5.00
2022-08-26T13:41:43.338Z,5.07
2022-08-26T13:44:10.531Z,5.10
2022-08-26T13:46:37.243Z,5.05
2022-08-26T13:49:04.042Z,5.22
2022-08-26T13:51:31.292Z,5.43
2022-08-26T13:53:58.510Z,5.95
2022-08-26T13:56:27.494Z,5.30
2022-08-26T13:58:54.023Z,5.35
2022-08-26T14:01:20.953Z,4.90
2022-08-26T14:03:47.795Z,5.55
2022-08-26T14:06:15.546Z,5.22
2022-08-26T14:08:42.419Z,5.60
2022-08-26T14:11:08.987Z,6.20
2022-08-26T14:13:36.204Z,6.78
2022-08-26T14:16:07.556Z,7.20
2022-08-26T14:18:41.644Z,8.02
2022-08-26T14:21:12.575Z,7.72
2022-08-26T14:23:39.097Z,7.43
2022-08-26T14:26:08.238Z,7.35
2022-08-26T14:28:35.595Z,7.80
2022-08-26T14:31:03.318Z,7.95
2022-08-26T14:33:33.315Z,7.68
2022-08-26T14:36:19.054Z,7.93
2022-08-26T14:38:46.799Z,7.45
2022-08-26T14:41:17.056Z,7.40
2022-08-26T14:43:50.374Z,7.68
2022-08-26T14:46:18.277Z,7.93
2022-08-26T14:48:44.976Z,7.85
2022-08-26T14:51:11.685Z,7.72
2022-08-26T14:53:57.058Z,7.82
2022-08-26T14:56:24.374Z,7.28
2022-08-26T14:58:50.950Z,7.65
2022-08-26T15:01:17.511Z,7.43
2022-08-26T15:03:44.663Z,7.60
2022-08-26T15:06:12.961Z,7.03
2022-08-26T15:08:40.032Z,7.70
2022-08-26T15:11:06.529Z,6.43
2022-08-26T15:13:33.113Z,6.70
2022-08-26T15:15:59.683Z,6.30
2022-08-26T15:18:26.346Z,6.72
2022-08-26T15:20:52.944Z,6.40
2022-08-26T15:23:22.444Z,6.38
2022-08-26T15:25:49.019Z,6.30
2022-08-26T15:28:15.670Z,6.55
2022-08-26T15:30:43.123Z,6.60
2022-08-26T15:33:15.177Z,6.53
2022-08-26T15:35:43.161Z,7.00
2022-08-26T15:38:10.705Z,6.53
2022-08-26T15:40:37.622Z,6.53
2022-08-26T15:43:18.409Z,6.50
2022-08-26T15:45:51.724Z,6.65
2022-08-26T15:48:18.922Z,7.30
2022-08-26T15:50:53.555Z,6.72
2022-08-26T15:53:21.954Z,6.72
2022-08-26T15:55:49.408Z,6.40
2022-08-26T15:58:16.949Z,6.95
2022-08-26T16:00:44.793Z,6.35
2022-08-26T16:03:11.388Z,6.68
2022-08-26T16:05:39.398Z,7.40
2022-08-26T16:08:07.470Z,6.60
2022-08-26T16:10:35.538Z,7.10
2022-08-26T16:13:02.182Z,7.30
2022-08-26T16:15:28.763Z,7.03
2022-08-26T16:17:59.279Z,6.85
2022-08-26T16:20:26.137Z,6.45
2022-08-26T16:22:52.788Z,6.78
2022-08-26T16:25:20.163Z,6.50
2022-08-26T16:27:46.879Z,6.90
2022-08-26T16:30:14.262Z,6.78
2022-08-26T16:32:40.784Z,7.05
2022-08-26T16:35:07.713Z,6.75
2022-08-26T16:37:36.516Z,7.28
2022-08-26T16:40:07.198Z,7.07
2022-08-26T16:42:33.778Z,7.50
2022-08-26T16:45:00.369Z,7.22
2022-08-26T16:47:27.086Z,7.10
2022-08-26T16:49:53.759Z,7.20
2022-08-26T16:52:20.422Z,7.70
2022-08-26T16:54:47.814Z,7.07
2022-08-26T16:57:14.393Z,7.32
2022-08-26T16:59:41.591Z,6.72
2022-08-26T17:02:08.753Z,8.68
2022-08-26T17:04:35.338Z,9.95
2022-08-26T17:07:01.999Z,9.82
2022-08-26T17:09:28.569Z,10.35
2022-08-26T17:11:55.149Z,7.18
2022-08-26T17:14:21.877Z,6.32
2022-08-26T17:16:51.266Z,6.78
2022-08-26T17:19:21.251Z,7.60
2022-08-26T17:21:48.004Z,8.80
2022-08-26T17:24:14.752Z,7.88
2022-08-26T17:26:44.232Z,8.07
2022-08-26T17:29:15.111Z,10.00
2022-08-26T17:31:44.719Z,9.90
2022-08-26T17:34:11.299Z,10.65
2022-08-26T17:36:37.911Z,12.30
2022-08-26T17:39:04.491Z,9.65
2022-08-26T17:41:31.183Z,7.85
2022-08-26T17:43:57.679Z,10.15
2022-08-26T17:46:25.042Z,8.75
2022-08-26T17:48:51.801Z,8.82
2022-08-26T17:51:21.873Z,8.13
2022-08-26T17:53:49.170Z,8.93
2022-08-26T17:56:19.565Z,9.52
2022-08-26T17:58:51.005Z,9.48
2022-08-26T18:01:18.474Z,9.00
2022-08-26T18:03:45.170Z,9.30
2022-08-26T18:06:13.759Z,8.68
2022-08-26T18:12:47.368Z,7.05
2022-08-26T18:15:16.040Z,7.65
2022-08-26T18:17:43.067Z,8.40
2022-08-26T18:20:12.942Z,8.93
2022-08-26T18:22:39.869Z,8.85
2022-08-26T18:25:07.620Z,8.63
2022-08-26T18:27:36.048Z,8.35
2022-08-26T18:30:11.355Z,8.52
2022-08-26T18:32:40.226Z,9.02
2022-08-26T18:35:07.934Z,10.18
2022-08-26T18:37:34.610Z,9.75
2022-08-26T18:40:01.294Z,11.90
2022-08-26T18:42:28.392Z,11.77
2022-08-26T18:44:55.008Z,10.13
2022-08-26T18:47:22.619Z,11.93
2022-08-26T18:49:51.839Z,11.23
2022-08-26T18:52:18.392Z,10.25
2022-08-26T18:54:44.979Z,9.25
2022-08-26T18:57:12.112Z,9.82
2022-08-26T18:59:38.866Z,9.50
2022-08-26T19:02:05.587Z,8.52
2022-08-26T19:04:32.301Z,9.88
2022-08-26T19:06:58.897Z,8.68
2022-08-26T19:09:26.425Z,10.57
2022-08-26T19:11:54.299Z,11.13
2022-08-26T19:14:20.879Z,9.05
2022-08-26T19:16:50.012Z,11.65
2022-08-26T19:19:17.044Z,10.20
2022-08-26T19:21:44.131Z,11.45
2022-08-26T19:24:15.455Z,12.18
2022-08-26T19:26:46.894Z,9.63
2022-08-26T19:29:13.855Z,10.48
2022-08-26T19:31:42.134Z,10.85
2022-08-26T19:34:10.883Z,11.70
2022-08-26T19:36:37.851Z,10.60
2022-08-26T19:39:06.477Z,10.50
2022-08-26T19:41:37.958Z,11.32
2022-08-26T19:44:08.607Z,11.75
2022-08-26T19:46:36.362Z,10.13
2022-08-26T19:49:03.984Z,10.77
2022-08-26T19:51:34.073Z,10.32
2022-08-26T19:54:01.649Z,11.57
2022-08-26T19:56:28.628Z,9.10
2022-08-26T19:58:55.941Z,10.00
2022-08-26T20:01:23.334Z,10.55
2022-08-26T20:03:50.428Z,10.48
2022-08-26T20:06:17.587Z,9.57
2022-08-26T20:08:44.738Z,11.25
2022-08-26T20:11:16.129Z,11.40
2022-08-26T20:13:43.555Z,12.85
2022-08-26T20:16:11.914Z,10.90
2022-08-26T20:18:59.385Z,11.95
2022-08-26T20:21:26.364Z,11.15
2022-08-26T20:23:58.331Z,10.70
2022-08-26T20:26:27.688Z,8.65
2022-08-26T20:28:55.327Z,8.65
2022-08-26T20:31:22.116Z,8.40
2022-08-26T20:33:50.514Z,9.32
2022-08-26T20:36:20.189Z,8.10
2022-08-26T20:38:48.189Z,7.40
2022-08-26T20:41:14.850Z,8.30
2022-08-26T20:43:42.798Z,7.60
2022-08-26T20:46:18.796Z,7.60
2022-08-26T20:48:46.892Z,7.78
2022-08-26T20:51:13.624Z,8.25
2022-08-26T20:53:40.331Z,8.50
2022-08-26T20:56:10.883Z,8.15
2022-08-26T20:58:38.700Z,8.35
2022-08-26T21:01:07.961Z,9.18
2022-08-26T21:03:36.502Z,10.70
2022-08-26T21:06:03.792Z,9.00
2022-08-26T21:08:33.110Z,9.13
2022-08-26T21:11:00.740Z,10.77
2022-08-26T21:13:35.813Z,9.32
2022-08-26T21:16:11.933Z,7.53
2022-08-26T21:18:38.962Z,10.02
2022-08-26T21:21:09.712Z,9.40
2022-08-26T21:23:37.048Z,8.10
2022-08-26T21:26:10.118Z,8.63
2022-08-26T21:28:38.245Z,9.52
2022-08-26T21:31:11.603Z,9.57
2022-08-26T21:36:06.345Z,8.75
2022-08-26T21:38:33.924Z,8.60
2022-08-26T21:41:05.525Z,8.18
2022-08-26T21:43:35.503Z,8.10
2022-08-26T21:46:11.397Z,7.95
2022-08-26T21:48:39.523Z,8.88
2022-08-26T21:51:06.474Z,8.50
2022-08-26T21:53:32.996Z,7.40
2022-08-26T21:55:59.515Z,7.88
2022-08-26T21:58:26.055Z,6.72
2022-08-26T22:00:52.571Z,8.43
2022-08-26T22:03:19.127Z,8.52
2022-08-26T22:05:51.139Z,7.25
2022-08-26T22:08:20.100Z,8.02
2022-08-26T22:10:51.823Z,7.70
2022-08-26T22:13:25.001Z,8.43
2022-08-26T22:15:52.169Z,8.45
2022-08-26T22:18:21.109Z,8.07
2022-08-26T22:20:47.936Z,6.97
2022-08-26T22:23:14.445Z,8.05
2022-08-26T22:25:41.499Z,7.53
2022-08-26T22:28:08.005Z,8.30
2022-08-26T22:30:35.347Z,7.32
2022-08-26T22:33:03.679Z,7.38
2022-08-26T22:35:30.963Z,7.40
2022-08-26T22:37:58.797Z,7.22
2022-08-26T22:40:25.353Z,7.00
2022-08-26T22:42:55.614Z,7.60
2022-08-26T22:45:27.394Z,9.10
2022-08-26T22:47:53.992Z,9.48
2022-08-26T22:50:20.628Z,8.60
2022-08-26T22:52:47.167Z,8.25
2022-08-26T22:55:14.232Z,8.60
2022-08-26T22:57:41.993Z,8.15
2022-08-26T23:00:12.283Z,7.47
2022-08-26T23:02:38.910Z,8.93
2022-08-26T23:05:06.769Z,8.13
2022-08-26T23:07:34.242Z,8.70
2022-08-26T23:10:01.871Z,8.60
2022-08-26T23:12:28.347Z,8.45
2022-08-26T23:14:55.182Z,8.63
2022-08-26T23:17:21.720Z,9.30
2022-08-26T23:19:48.308Z,7.80
2022-08-26T23:22:16.847Z,8.65
2022-08-26T23:24:43.687Z,8.85
2022-08-26T23:27:10.531Z,7.88
2022-08-26T23:29:37.166Z,7.80
2022-08-26T23:32:04.493Z,8.48
2022-08-26T23:34:49.458Z,8.25
2022-08-26T23:37:16.333Z,8.20
2022-08-26T23:39:42.832Z,9.30
2022-08-26T23:42:10.787Z,9.85
2022-08-26T23:44:37.285Z,9.73
2022-08-26T23:47:05.301Z,10.07
2022-08-26T23:49:32.478Z,8.32
2022-08-26T23:52:17.944Z,8.88
2022-08-26T23:54:45.439Z,9.52
2022-08-26T23:57:11.947Z,9.70
2022-08-26T23:59:38.953Z,9.15
